Strona główna
METAR-TAF:

METAR-TAF

Lotnisko :

Lahr, Niemcy

Szerokość geograficzna: 48-22-09N, Długość geograficzna: 007-49-40E, wysokość: 156 m

Aktualna obserwacja pogody

Raport powstał 58 minut temu, godzina 10:50 UTC
Wiatr 7 kt od południowo-południowy zachód
Temperatura 5°C
Wilgotność 75%
Ciśnienie 1029 hPa
Widzialność 10 km lub więcej
Mało chmury na wysokości 3000 ft

METAR: EDTL 101050Z 21007KT 9999 FEW030 05/01 Q1029

czas: 12:48 (11:48 UTC)

Prognoza

Raport powstał 48 minut temu, godzina 11:00 UTC
Prognoza ważna od 10 godzina 12 UTC do 10 godzina 21 UTC
Wiatr 5 kt od południe
Widzialność 10 km lub więcej
Brak chmur poniżej 1500 m i brak chmur cumulonimbus
Stopniowe zmiany
od 10 godzina 15 UTC do 10 godzina 18 UTC
Wiatr 3 kt z kierunków zmiennych

TAF: EDTL 101100Z 1012/1021 19005KT CAVOK BECMG 1015/1018 VRB03KT

Obserwacja i prognoza pogody dla ponad 4000 lotnisk (raport METAR i TAF).

Dostępne stacje oznaczono żółtymi i czerwonymi punktami na mapie.

Najedź kursorem aby zobaczyć nazwę stacji.

Kliknij aby zobaczyć obserwacje i prognozy pogody.

Aby zmienić mapę: kliknij na zielony przycisk z czarnym krzyżykiem, aby powiększyć; na zielony przycisk z myślnikiem, aby pomniejszyć; na zielone strzałki, aby przejść do map sąsiednich.


METAR-TAF: